Time;durP1;ratioP1;P1;durP2;ratioP2;P2;SDS_P1;SDS_P2;PMS_P1;PMS_P2;Temp;Humidity;BMP_temperature;BMP_pressure;BME280_temperature;BME280_humidity;BME280_pressure;Samples;Min_cycle;Max_cycle;Signal;HPM_P1;HPM_P2
2022/09/13 00:00:30;;;;;;;0.10;0.10;;;16.70;99.90;;;;;;5063027;28;20206;-86
2022/09/13 00:02:56;;;;;;;0.10;0.10;;;16.70;99.90;;;;;;5059572;28;20288;-87
2022/09/13 00:05:22;;;;;;;0.10;0.10;;;16.60;99.90;;;;;;5068585;28;20190;-87
2022/09/13 00:07:48;;;;;;;0.10;0.10;;;16.50;99.90;;;;;;5068719;28;20185;-87
2022/09/13 00:10:14;;;;;;;0.10;0.10;;;16.40;99.90;;;;;;5067465;28;20182;-86
2022/09/13 00:12:39;;;;;;;0.10;0.10;;;16.20;99.90;;;;;;5071888;28;20420;-88
2022/09/13 00:15:05;;;;;;;0.10;0.10;;;16.10;99.90;;;;;;5064194;28;20186;-88
2022/09/13 00:17:31;;;;;;;0.10;0.10;;;15.90;99.90;;;;;;5055843;28;20290;-89
2022/09/13 00:19:56;;;;;;;0.10;0.10;;;15.80;99.90;;;;;;5067356;28;20519;-89
2022/09/13 00:22:22;;;;;;;0.10;0.10;;;15.70;99.90;;;;;;5062923;28;20223;-89
2022/09/13 00:24:47;;;;;;;0.10;0.10;;;15.70;99.90;;;;;;5067601;28;20206;-93
2022/09/13 00:27:13;;;;;;;0.10;0.10;;;15.60;99.90;;;;;;5055797;28;20603;-89
2022/09/13 00:29:38;;;;;;;0.10;0.10;;;15.60;99.90;;;;;;5060671;28;20202;-88
2022/09/13 00:32:04;;;;;;;0.10;0.10;;;15.60;99.90;;;;;;5066287;28;20210;-89
2022/09/13 00:34:30;;;;;;;0.10;0.10;;;15.60;99.90;;;;;;5059728;28;20295;-90
2022/09/13 00:36:55;;;;;;;0.10;0.10;;;15.60;99.90;;;;;;5062526;28;20186;-91
2022/09/13 00:39:21;;;;;;;0.10;0.10;;;15.60;99.90;;;;;;5059999;28;20182;-90
2022/09/13 00:41:47;;;;;;;0.20;0.20;;;15.60;99.90;;;;;;5066601;28;20691;-91
2022/09/13 00:44:50;;;;;;;0.10;0.10;;;15.50;99.90;;;;;;5060684;28;20455;-90
2022/09/13 00:47:20;;;;;;;0.10;0.10;;;15.50;99.90;;;;;;5061830;28;20198;-91
2022/09/13 00:49:50;;;;;;;0.10;0.10;;;15.40;99.90;;;;;;5062997;28;20519;-90
2022/09/13 00:52:19;;;;;;;0.10;0.10;;;15.50;99.90;;;;;;5065289;28;20459;-92
2022/09/13 00:54:54;;;;;;;0.10;0.10;;;15.50;99.90;;;;;;5059808;28;20444;-91
2022/09/13 00:57:22;;;;;;;0.10;0.10;;;15.40;99.90;;;;;;5065536;28;20444;-92
2022/09/13 01:00:12;;;;;;;0.10;0.10;;;15.50;99.90;;;;;;5060578;28;20865;-92
2022/09/13 01:03:05;;;;;;;0.10;0.10;;;15.40;99.90;;;;;;5076114;28;20607;-91
2022/09/13 01:05:35;;;;;;;0.10;0.10;;;15.40;99.90;;;;;;5060294;28;20428;-90
2022/09/13 01:08:02;;;;;;;0.10;0.10;;;15.40;99.90;;;;;;5063847;28;20475;-92
2022/09/13 01:10:30;;;;;;;0.10;0.10;;;15.40;99.90;;;;;;5063839;28;20436;-89
2022/09/13 01:13:13;;;;;;;0.10;0.10;;;15.40;99.90;;;;;;5075063;28;20448;-90
2022/09/13 01:15:39;;;;;;;0.10;0.10;;;15.40;99.90;;;;;;5063499;28;20438;-92
2022/09/13 01:18:05;;;;;;;0.10;0.10;;;15.40;99.90;;;;;;5063085;28;20448;-93
2022/09/13 01:20:47;;;;;;;0.10;0.10;;;15.30;99.90;;;;;;5062918;28;20979;-88
2022/09/13 01:23:31;;;;;;;0.10;0.10;;;15.30;99.90;;;;;;5059603;28;20436;-93
2022/09/13 01:26:31;;;;;;;0.10;0.10;;;15.30;99.90;;;;;;5077211;28;20456;-89
2022/09/13 01:29:10;;;;;;;0.10;0.10;;;15.40;99.90;;;;;;5060113;28;20452;-90
2022/09/13 01:31:43;;;;;;;0.10;0.10;;;15.30;99.90;;;;;;5059745;28;20450;-92
2022/09/13 01:34:13;;;;;;;0.10;0.10;;;15.30;99.90;;;;;;5075636;28;20457;-92
2022/09/13 01:36:52;;;;;;;0.10;0.10;;;15.30;99.90;;;;;;5066000;28;20470;-89
2022/09/13 01:39:49;;;;;;;0.10;0.10;;;15.30;99.90;;;;;;5062905;28;20646;-91
2022/09/13 01:42:21;;;;;;;0.10;0.10;;;15.20;99.90;;;;;;5059856;28;20471;-92
2022/09/13 01:45:03;;;;;;;0.10;0.10;;;15.30;99.90;;;;;;5056055;28;20464;-93
2022/09/13 01:47:36;;;;;;;0.10;0.10;;;15.20;99.90;;;;;;5058298;28;20440;-89
2022/09/13 01:50:37;;;;;;;0.10;0.10;;;15.10;99.90;;;;;;5067495;28;20504;-90
2022/09/13 01:53:20;;;;;;;0.10;0.10;;;15.20;99.90;;;;;;5040332;28;20455;-90
2022/09/13 01:55:53;;;;;;;0.10;0.10;;;15.20;99.90;;;;;;5061675;28;20844;-90
2022/09/13 01:58:27;;;;;;;0.10;0.10;;;15.20;99.90;;;;;;5068081;28;20530;-90
2022/09/13 02:01:06;;;;;;;0.10;0.10;;;15.20;99.90;;;;;;5057945;28;20470;-89
2022/09/13 02:03:54;;;;;;;0.10;0.10;;;15.20;99.90;;;;;;5070210;28;20447;-90
2022/09/13 02:06:26;;;;;;;0.10;0.10;;;15.20;99.90;;;;;;5071678;28;20963;-88
2022/09/13 02:09:08;;;;;;;0.10;0.10;;;15.20;99.90;;;;;;5066016;28;20807;-89
2022/09/13 02:11:36;;;;;;;0.10;0.10;;;15.20;99.90;;;;;;5069343;28;20478;-88
2022/09/13 02:14:18;;;;;;;0.10;0.10;;;15.10;99.90;;;;;;5064343;28;20444;-88
2022/09/13 02:16:55;;;;;;;0.10;0.10;;;15.10;99.90;;;;;;5063315;28;20443;-87
2022/09/13 02:19:59;;;;;;;0.10;0.10;;;15.10;99.90;;;;;;5065359;28;20440;-88
2022/09/13 02:22:32;;;;;;;0.10;0.10;;;15.00;99.90;;;;;;5060209;28;21005;-87
2022/09/13 02:25:03;;;;;;;0.10;0.10;;;15.10;99.90;;;;;;5064823;28;20440;-88
2022/09/13 02:27:34;;;;;;;0.10;0.10;;;15.10;99.90;;;;;;5080173;28;20482;-90
2022/09/13 02:30:09;;;;;;;0.10;0.10;;;15.10;99.90;;;;;;5063920;28;20468;-89
2022/09/13 02:32:40;;;;;;;0.10;0.10;;;15.00;99.90;;;;;;5060999;28;20470;-89
2022/09/13 02:35:26;;;;;;;0.10;0.10;;;15.00;99.90;;;;;;5062149;28;22618;-89
2022/09/13 02:38:08;;;;;;;0.10;0.10;;;15.00;99.90;;;;;;5058945;28;21245;-88
2022/09/13 02:40:41;;;;;;;0.10;0.10;;;15.00;99.90;;;;;;5063695;28;20474;-89
2022/09/13 02:43:17;;;;;;;0.10;0.10;;;15.00;99.90;;;;;;5060964;28;20456;-88
2022/09/13 02:46:06;;;;;;;0.10;0.10;;;15.00;99.90;;;;;;5061375;28;20462;-87
2022/09/13 02:48:48;;;;;;;0.10;0.10;;;15.00;99.90;;;;;;5082044;28;20947;-89
2022/09/13 02:51:21;;;;;;;0.10;0.10;;;15.00;99.90;;;;;;5079727;28;21132;-88
2022/09/13 02:54:07;;;;;;;0.10;0.10;;;14.90;99.90;;;;;;5062890;28;20850;-88
2022/09/13 02:56:38;;;;;;;0.10;0.10;;;14.90;99.90;;;;;;5065445;28;20468;-89
2022/09/13 02:59:20;;;;;;;0.10;0.10;;;14.80;99.90;;;;;;5065408;28;20498;-86
2022/09/13 03:01:53;;;;;;;0.10;0.10;;;14.80;99.90;;;;;;5059433;28;20468;-87
2022/09/13 03:04:19;;;;;;;0.10;0.10;;;14.80;99.90;;;;;;5081069;28;21013;-87
2022/09/13 03:06:44;;;;;;;0.10;0.10;;;14.80;99.90;;;;;;5062186;28;20448;-91
2022/09/13 03:09:10;;;;;;;0.10;0.10;;;14.80;99.90;;;;;;5064705;28;20181;-88
2022/09/13 03:12:14;;;;;;;0.10;0.10;;;14.80;99.90;;;;;;5061910;28;20201;-88
2022/09/13 03:14:53;;;;;;;0.10;0.10;;;14.90;99.90;;;;;;5062392;28;20493;-89
2022/09/13 03:17:48;;;;;;;0.10;0.10;;;14.80;99.90;;;;;;5060978;28;20443;-88
2022/09/13 03:20:23;;;;;;;0.10;0.10;;;14.90;99.90;;;;;;5061221;28;20451;-89
2022/09/13 03:23:20;;;;;;;0.10;0.10;;;14.90;99.90;;;;;;5063555;28;20486;-89
2022/09/13 03:25:56;;;;;;;0.10;0.10;;;14.90;99.90;;;;;;5081096;28;21205;-89
2022/09/13 03:28:55;;;;;;;0.10;0.10;;;14.90;99.90;;;;;;5060101;28;20517;-90
2022/09/13 03:31:27;;;;;;;0.10;0.10;;;14.90;99.90;;;;;;5076283;28;20504;-88
2022/09/13 03:34:14;;;;;;;0.10;0.10;;;14.90;99.90;;;;;;5062085;28;20455;-88
2022/09/13 03:36:52;;;;;;;0.10;0.10;;;14.90;99.90;;;;;;5061283;28;20447;-91
2022/09/13 03:39:35;;;;;;;0.10;0.10;;;15.00;99.90;;;;;;5061080;28;20444;-90
2022/09/13 03:42:11;;;;;;;0.10;0.10;;;15.00;99.90;;;;;;5068351;28;20473;-88
2022/09/13 03:44:39;;;;;;;0.10;0.10;;;14.90;99.90;;;;;;5062500;28;21017;-88
2022/09/13 03:47:06;;;;;;;0.10;0.10;;;14.90;99.90;;;;;;5067632;28;20828;-89
2022/09/13 03:49:35;;;;;;;0.10;0.10;;;15.00;99.90;;;;;;5071256;28;20449;-90
2022/09/13 03:52:01;;;;;;;0.10;0.10;;;15.00;99.90;;;;;;5086243;28;20445;-93
2022/09/13 03:54:31;;;;;;;0.10;0.10;;;15.00;99.90;;;;;;5070908;28;20447;-89
2022/09/13 03:57:15;;;;;;;0.10;0.10;;;15.10;99.90;;;;;;5063997;28;20456;-90
2022/09/13 03:59:47;;;;;;;0.10;0.10;;;15.10;99.90;;;;;;5068667;28;20440;-87
2022/09/13 04:02:13;;;;;;;0.10;0.10;;;15.10;99.90;;;;;;5069379;28;20487;-91
2022/09/13 04:04:41;;;;;;;0.10;0.10;;;15.10;99.90;;;;;;5071792;28;20428;-91
2022/09/13 04:07:09;;;;;;;0.10;0.10;;;15.10;99.90;;;;;;5070028;28;20544;-88
2022/09/13 04:09:35;;;;;;;0.10;0.10;;;15.10;99.90;;;;;;5084834;28;20439;-88
2022/09/13 04:12:01;;;;;;;0.10;0.10;;;15.20;99.90;;;;;;5068551;28;20436;-89
2022/09/13 04:14:27;;;;;;;0.10;0.10;;;15.20;99.90;;;;;;5055878;28;20729;-89
2022/09/13 04:16:53;;;;;;;0.10;0.10;;;15.20;99.90;;;;;;5086774;28;20186;-88
2022/09/13 04:19:19;;;;;;;0.10;0.10;;;15.20;99.90;;;;;;5070758;28;20424;-88
2022/09/13 04:21:47;;;;;;;0.10;0.10;;;15.20;99.90;;;;;;5070882;28;20479;-91
2022/09/13 04:24:14;;;;;;;0.10;0.10;;;15.20;99.90;;;;;;5069985;28;20182;-89
2022/09/13 04:26:39;;;;;;;0.10;0.10;;;15.20;99.90;;;;;;5065885;28;20452;-91
2022/09/13 04:29:05;;;;;;;0.10;0.10;;;15.20;99.90;;;;;;5060160;28;20444;-90
2022/09/13 04:31:30;;;;;;;0.10;0.10;;;15.20;99.90;;;;;;5058197;28;20232;-89
2022/09/13 04:33:56;;;;;;;0.10;0.10;;;15.20;99.90;;;;;;5063776;28;20190;-91
2022/09/13 04:36:22;;;;;;;0.10;0.10;;;15.20;99.90;;;;;;5061955;28;20198;-90
2022/09/13 04:38:47;;;;;;;0.10;0.10;;;15.30;99.90;;;;;;5062162;28;20994;-90
2022/09/13 04:41:14;;;;;;;0.10;0.10;;;15.30;99.90;;;;;;5061158;28;20214;-89
2022/09/13 04:43:40;;;;;;;0.10;0.10;;;15.30;99.90;;;;;;5059332;28;20273;-88
2022/09/13 04:46:05;;;;;;;0.10;0.10;;;15.30;99.90;;;;;;5068369;28;20523;-90
2022/09/13 04:48:31;;;;;;;0.10;0.10;;;15.30;99.90;;;;;;5063584;28;20209;-90
2022/09/13 04:51:03;;;;;;;0.10;0.10;;;15.30;99.90;;;;;;5063140;28;20247;-88
2022/09/13 04:53:29;;;;;;;0.10;0.10;;;15.30;99.90;;;;;;5070867;28;20226;-89
2022/09/13 04:56:06;;;;;;;0.10;0.10;;;15.30;99.90;;;;;;5067649;28;20444;-90
2022/09/13 04:58:32;;;;;;;0.10;0.10;;;15.30;99.90;;;;;;5061313;28;20456;-90
2022/09/13 05:01:04;;;;;;;0.10;0.10;;;15.30;99.90;;;;;;5058582;28;20853;-89
2022/09/13 05:03:32;;;;;;;0.10;0.10;;;15.30;99.90;;;;;;5061421;28;20322;-88
2022/09/13 05:06:05;;;;;;;0.10;0.10;;;15.30;99.90;;;;;;5083694;28;20455;-89
2022/09/13 05:08:31;;;;;;;0.10;0.10;;;15.30;99.90;;;;;;5073719;28;20452;-89
2022/09/13 05:10:57;;;;;;;0.10;0.10;;;15.30;99.90;;;;;;5064580;28;20452;-89
2022/09/13 05:13:23;;;;;;;0.10;0.10;;;15.30;99.90;;;;;;5063987;28;20218;-89
2022/09/13 05:15:49;;;;;;;0.10;0.10;;;15.30;99.90;;;;;;5053503;28;20997;-89
2022/09/13 05:18:15;;;;;;;0.10;0.10;;;15.30;99.90;;;;;;5065608;28;20456;-89
2022/09/13 05:20:40;;;;;;;0.10;0.10;;;15.30;99.90;;;;;;5068894;28;20231;-88
2022/09/13 05:23:06;;;;;;;0.10;0.10;;;15.30;99.90;;;;;;5068766;28;20947;-89
2022/09/13 05:25:31;;;;;;;0.10;0.10;;;15.30;99.90;;;;;;5068719;28;20737;-88
2022/09/13 05:27:57;;;;;;;0.10;0.10;;;15.30;99.90;;;;;;5064794;28;20194;-90
2022/09/13 05:30:22;;;;;;;0.10;0.10;;;15.30;99.90;;;;;;5068259;28;20234;-90
2022/09/13 05:32:48;;;;;;;0.10;0.10;;;15.30;99.90;;;;;;5066260;28;20190;-88
2022/09/13 05:35:14;;;;;;;0.10;0.10;;;15.30;99.90;;;;;;5064339;28;20190;-89
2022/09/13 05:37:39;;;;;;;0.10;0.10;;;15.30;99.90;;;;;;5063987;28;20191;-91
2022/09/13 05:40:06;;;;;;;0.10;0.10;;;15.30;99.90;;;;;;5079908;28;20191;-91
2022/09/13 05:42:31;;;;;;;0.10;0.10;;;15.30;99.90;;;;;;5067731;28;20228;-91
2022/09/13 05:44:57;;;;;;;0.10;0.10;;;15.30;99.90;;;;;;5056449;28;20526;-90
2022/09/13 05:47:22;;;;;;;0.10;0.10;;;15.30;99.90;;;;;;5070128;28;20277;-91
2022/09/13 05:49:48;;;;;;;0.10;0.10;;;15.30;99.90;;;;;;5069664;28;20204;-92
2022/09/13 05:52:14;;;;;;;0.10;0.10;;;15.40;99.90;;;;;;5068481;28;20219;-92
2022/09/13 05:54:39;;;;;;;0.10;0.10;;;15.40;99.90;;;;;;5069814;28;20215;-93
2022/09/13 05:57:05;;;;;;;0.10;0.10;;;15.30;99.90;;;;;;5068427;28;20231;-90
2022/09/13 05:59:30;;;;;;;0.10;0.10;;;15.30;99.90;;;;;;5066841;28;20552;-93
2022/09/13 06:01:56;;;;;;;0.10;0.10;;;15.30;99.90;;;;;;5069589;28;20208;-94
2022/09/13 06:04:22;;;;;;;0.10;0.10;;;15.30;99.90;;;;;;5067495;28;20710;-91
2022/09/13 06:06:48;;;;;;;0.20;0.20;;;15.30;99.90;;;;;;5068081;28;20455;-90
2022/09/13 06:09:15;;;;;;;0.10;0.10;;;15.20;99.90;;;;;;5067498;28;20217;-93
2022/09/13 06:11:41;;;;;;;0.10;0.10;;;15.20;99.90;;;;;;5057832;28;20533;-91
2022/09/13 06:14:07;;;;;;;0.10;0.10;;;15.20;99.90;;;;;;5068549;28;20522;-89
2022/09/13 06:16:33;;;;;;;0.10;0.10;;;15.10;99.90;;;;;;5062944;28;20178;-89
2022/09/13 06:18:59;;;;;;;0.10;0.10;;;15.10;99.90;;;;;;5068040;28;20455;-90
2022/09/13 06:21:24;;;;;;;0.10;0.10;;;15.10;99.90;;;;;;5068583;28;20224;-90
2022/09/13 06:23:52;;;;;;;0.10;0.10;;;15.10;99.90;;;;;;5063122;28;20218;-89
2022/09/13 06:26:20;;;;;;;0.10;0.10;;;15.10;99.90;;;;;;5066690;28;20646;-89
2022/09/13 06:28:47;;;;;;;0.10;0.10;;;15.20;99.90;;;;;;5066631;28;20441;-87
2022/09/13 06:31:15;;;;;;;0.10;0.10;;;15.40;99.90;;;;;;5057958;28;20597;-89
2022/09/13 06:33:41;;;;;;;0.10;0.10;;;15.60;99.90;;;;;;5061928;28;20447;-89
2022/09/13 06:36:09;;;;;;;0.10;0.10;;;15.70;99.90;;;;;;5065036;28;20431;-89
2022/09/13 06:38:35;;;;;;;0.10;0.10;;;15.90;99.90;;;;;;5061255;28;20534;-87
2022/09/13 06:41:05;;;;;;;0.10;0.10;;;16.10;99.90;;;;;;5067044;28;20471;-85
2022/09/13 06:43:32;;;;;;;0.10;0.10;;;16.10;99.90;;;;;;5067390;28;20444;-87
2022/09/13 06:46:10;;;;;;;0.10;0.10;;;16.20;99.90;;;;;;5071218;28;20464;-87
2022/09/13 06:48:37;;;;;;;0.10;0.10;;;16.20;99.90;;;;;;5064326;28;20432;-88
2022/09/13 06:51:09;;;;;;;0.10;0.10;;;16.20;99.90;;;;;;5065942;28;20525;-88
2022/09/13 06:53:36;;;;;;;0.10;0.10;;;16.10;99.90;;;;;;5067322;28;20474;-92
2022/09/13 06:56:10;;;;;;;0.10;0.10;;;16.10;99.90;;;;;;5068103;28;20482;-90
2022/09/13 06:58:37;;;;;;;0.10;0.10;;;16.20;99.90;;;;;;5058081;28;20444;-89
2022/09/13 07:01:16;;;;;;;0.10;0.10;;;16.10;99.90;;;;;;5061255;28;20538;-88
2022/09/13 07:03:49;;;;;;;0.10;0.10;;;16.00;99.90;;;;;;5061272;28;20436;-88
2022/09/13 07:06:17;;;;;;;0.10;0.10;;;16.00;99.90;;;;;;5064620;28;20447;-86
2022/09/13 07:08:44;;;;;;;0.10;0.10;;;15.90;99.90;;;;;;5083709;28;20440;-87
2022/09/13 07:11:12;;;;;;;0.10;0.10;;;15.80;99.90;;;;;;5068179;28;20454;-86
2022/09/13 07:13:38;;;;;;;0.10;0.10;;;15.80;99.90;;;;;;5063858;28;20444;-86
2022/09/13 07:16:07;;;;;;;0.10;0.10;;;15.90;99.90;;;;;;5071204;28;20483;-87
2022/09/13 07:18:32;;;;;;;0.10;0.10;;;16.00;99.90;;;;;;5071124;28;20485;-87
2022/09/13 07:21:00;;;;;;;0.10;0.10;;;16.10;99.90;;;;;;5069015;28;20999;-87
2022/09/13 07:23:26;;;;;;;0.10;0.10;;;16.30;99.90;;;;;;5064085;28;20220;-86
2022/09/13 07:26:00;;;;;;;0.10;0.10;;;16.30;99.90;;;;;;5065046;28;20448;-87
2022/09/13 07:28:27;;;;;;;0.10;0.10;;;16.30;99.90;;;;;;5070751;28;20653;-87
2022/09/13 07:30:53;;;;;;;0.10;0.10;;;16.40;99.90;;;;;;5060045;28;20475;-87
2022/09/13 07:33:18;;;;;;;0.10;0.10;;;16.40;99.90;;;;;;5071371;28;20451;-86
2022/09/13 07:35:43;;;;;;;0.10;0.10;;;16.60;99.90;;;;;;5067448;28;20182;-86
2022/09/13 07:38:09;;;;;;;0.10;0.10;;;16.60;99.90;;;;;;5067132;28;20698;-86
2022/09/13 07:40:35;;;;;;;0.10;0.10;;;16.60;99.90;;;;;;5069623;28;20182;-90
2022/09/13 07:43:01;;;;;;;0.10;0.10;;;16.80;99.90;;;;;;5059097;28;20194;-88
2022/09/13 07:45:27;;;;;;;0.10;0.10;;;17.00;99.90;;;;;;5068940;28;20430;-89
2022/09/13 07:47:53;;;;;;;0.10;0.10;;;17.10;99.90;;;;;;5064735;28;20214;-90
2022/09/13 07:50:18;;;;;;;0.10;0.10;;;17.00;99.90;;;;;;5070008;28;20425;-87
2022/09/13 07:52:44;;;;;;;0.10;0.10;;;17.00;99.90;;;;;;5065688;28;20182;-87
2022/09/13 07:55:09;;;;;;;0.10;0.10;;;16.90;99.90;;;;;;5068720;28;20190;-88
2022/09/13 07:57:35;;;;;;;0.10;0.10;;;17.00;99.90;;;;;;5067213;28;20271;-87
2022/09/13 08:00:00;;;;;;;0.10;0.10;;;17.10;99.90;;;;;;5065065;28;20182;-85
2022/09/13 08:02:26;;;;;;;0.10;0.10;;;17.20;99.90;;;;;;5070290;28;20989;-85
2022/09/13 08:04:51;;;;;;;0.10;0.10;;;17.40;99.90;;;;;;5071556;28;20193;-89
2022/09/13 08:07:17;;;;;;;0.10;0.10;;;17.40;99.90;;;;;;5064402;28;20221;-84
2022/09/13 08:09:43;;;;;;;0.10;0.10;;;17.40;99.90;;;;;;5068461;28;20182;-82
2022/09/13 08:12:08;;;;;;;0.10;0.10;;;17.40;99.90;;;;;;5069828;28;20450;-86
2022/09/13 08:14:34;;;;;;;0.10;0.10;;;17.30;99.90;;;;;;5069092;28;20190;-84
2022/09/13 08:17:00;;;;;;;0.10;0.10;;;17.40;99.90;;;;;;5061355;28;20205;-84
2022/09/13 08:19:26;;;;;;;0.10;0.10;;;17.50;99.90;;;;;;5060931;28;20272;-85
2022/09/13 08:21:52;;;;;;;0.10;0.00;;;17.40;99.90;;;;;;5066198;28;20495;-85
2022/09/13 08:24:20;;;;;;;0.10;0.10;;;17.40;99.90;;;;;;5060153;28;20174;-85
2022/09/13 08:26:47;;;;;;;0.10;0.10;;;17.70;99.90;;;;;;5063993;28;20217;-85
2022/09/13 08:29:13;;;;;;;0.10;0.10;;;17.50;99.90;;;;;;5062098;28;20466;-84
2022/09/13 08:31:39;;;;;;;0.10;0.10;;;17.40;99.90;;;;;;5069727;28;20451;-85
2022/09/13 08:34:10;;;;;;;0.10;0.10;;;17.60;99.90;;;;;;5067732;28;20968;-85
2022/09/13 08:36:35;;;;;;;0.10;0.10;;;17.70;99.90;;;;;;5060456;28;20715;-85
2022/09/13 08:39:01;;;;;;;0.10;0.10;;;17.70;99.90;;;;;;5063134;28;20549;-84
2022/09/13 08:41:51;;;;;;;0.10;0.10;;;18.00;99.90;;;;;;5070084;28;20220;-85
2022/09/13 08:44:32;;;;;;;0.10;0.10;;;18.20;99.90;;;;;;5049700;28;20433;-85
2022/09/13 08:47:16;;;;;;;0.10;0.10;;;18.80;99.90;;;;;;5066925;28;20448;-85
2022/09/13 08:49:45;;;;;;;0.10;0.00;;;18.70;99.90;;;;;;5064587;28;20441;-85
2022/09/13 08:52:28;;;;;;;0.10;0.00;;;18.40;99.90;;;;;;5065622;28;20440;-84
2022/09/13 08:54:54;;;;;;;0.10;0.10;;;17.90;99.90;;;;;;5069438;28;20561;-86
2022/09/13 08:57:37;;;;;;;0.10;0.00;;;17.50;99.90;;;;;;5070867;28;20420;-85
2022/09/13 09:00:21;;;;;;;0.10;0.10;;;17.40;99.90;;;;;;5068894;28;20451;-84
2022/09/13 09:03:05;;;;;;;0.10;0.00;;;17.30;99.90;;;;;;5060837;28;20486;-86
2022/09/13 09:05:46;;;;;;;0.00;0.00;;;17.30;99.90;;;;;;5066273;28;20447;-84
2022/09/13 09:08:18;;;;;;;0.10;0.10;;;17.40;99.90;;;;;;5060263;28;21024;-84
2022/09/13 09:10:47;;;;;;;0.10;0.00;;;17.60;99.90;;;;;;5052612;28;20949;-84
2022/09/13 09:13:36;;;;;;;0.10;0.00;;;18.00;99.90;;;;;;5067373;28;20983;-85
2022/09/13 09:16:25;;;;;;;0.10;0.10;;;18.50;99.90;;;;;;5067813;28;20808;-85
2022/09/13 09:18:53;;;;;;;0.10;0.00;;;18.30;99.90;;;;;;5058885;28;20456;-84
2022/09/13 09:21:19;;;;;;;0.10;0.00;;;18.30;99.90;;;;;;5068797;28;20561;-85
2022/09/13 09:23:52;;;;;;;0.10;0.00;;;18.10;99.90;;;;;;5067906;28;20875;-81
2022/09/13 09:26:25;;;;;;;0.10;0.10;;;18.30;99.90;;;;;;5064830;28;20836;-84
2022/09/13 09:28:56;;;;;;;0.10;0.00;;;18.30;99.90;;;;;;5060285;28;20452;-84
2022/09/13 09:31:34;;;;;;;0.10;0.10;;;18.50;99.90;;;;;;5067089;28;20456;-85
2022/09/13 09:34:25;;;;;;;0.00;0.00;;;18.60;99.90;;;;;;5053097;28;20452;-85
2022/09/13 09:37:23;;;;;;;0.10;0.10;;;19.20;99.90;;;;;;5063042;28;20482;-84
2022/09/13 09:39:51;;;;;;;0.10;0.07;;;19.30;99.90;;;;;;5061981;28;20527;-85
2022/09/13 09:42:29;;;;;;;0.10;0.10;;;18.60;99.90;;;;;;5070055;28;20479;-84
2022/09/13 09:45:05;;;;;;;0.10;0.10;;;18.50;99.90;;;;;;5066137;28;20493;-84
2022/09/13 09:47:50;;;;;;;0.10;0.00;;;19.10;99.90;;;;;;5067937;28;20534;-83
2022/09/13 09:50:26;;;;;;;0.10;0.10;;;19.20;99.90;;;;;;5067385;28;20455;-84
2022/09/13 09:53:03;;;;;;;0.10;0.10;;;19.60;99.90;;;;;;5059453;28;20527;-84
2022/09/13 09:55:32;;;;;;;0.10;0.10;;;20.50;99.90;;;;;;5065493;28;21047;-86
2022/09/13 09:58:05;;;;;;;0.10;0.07;;;20.80;99.90;;;;;;5065240;28;20447;-84
2022/09/13 10:00:53;;;;;;;0.10;0.00;;;21.30;99.90;;;;;;5067428;28;20481;-84
2022/09/13 10:03:24;;;;;;;0.10;0.00;;;21.50;99.90;;;;;;5049653;28;20452;-85
2022/09/13 10:05:50;;;;;;;0.10;0.00;;;21.40;99.90;;;;;;5059962;28;20970;-84
2022/09/13 10:08:30;;;;;;;0.10;0.00;;;21.70;99.90;;;;;;5063504;28;20444;-85
2022/09/13 10:10:58;;;;;;;0.10;0.00;;;22.00;99.90;;;;;;5064302;28;20535;-84
2022/09/13 10:13:24;;;;;;;0.10;0.00;;;20.70;99.90;;;;;;5061513;28;20466;-85
2022/09/13 10:15:59;;;;;;;0.10;0.00;;;20.70;99.90;;;;;;5052736;28;20510;-85
2022/09/13 10:18:30;;;;;;;0.10;0.00;;;21.10;99.90;;;;;;5061311;28;20447;-85
2022/09/13 10:21:01;;;;;;;0.10;0.00;;;21.40;99.90;;;;;;5067715;28;20463;-85
2022/09/13 10:23:26;;;;;;;0.10;0.00;;;22.30;99.90;;;;;;5077758;28;20479;-86
2022/09/13 10:25:57;;;;;;;0.10;0.00;;;22.40;99.90;;;;;;5057905;28;20823;-91
2022/09/13 10:28:24;;;;;;;0.10;0.00;;;22.50;99.90;;;;;;5062911;28;20517;-91
2022/09/13 10:31:00;;;;;;;0.10;0.10;;;22.00;99.90;;;;;;5064095;28;20471;-92
2022/09/13 10:33:38;;;;;;;0.10;0.00;;;22.00;99.90;;;;;;5058908;28;20447;-90
2022/09/13 10:36:25;;;;;;;0.10;0.00;;;21.70;99.90;;;;;;5060072;28;20448;-91
2022/09/13 10:39:00;;;;;;;0.10;0.10;;;22.00;99.90;;;;;;5068719;28;20951;-91
2022/09/13 10:41:29;;;;;;;0.10;0.00;;;22.20;99.90;;;;;;5068934;28;20480;-91
2022/09/13 10:44:00;;;;;;;0.10;0.00;;;21.80;99.90;;;;;;5053345;28;20436;-91
2022/09/13 10:46:31;;;;;;;0.07;0.00;;;21.80;99.90;;;;;;5071299;28;20701;-91
2022/09/13 10:48:57;;;;;;;0.00;0.00;;;21.70;99.90;;;;;;5068826;28;20451;-91
2022/09/13 10:51:25;;;;;;;0.10;0.00;;;22.20;99.90;;;;;;5065566;28;20448;-89
2022/09/13 10:54:07;;;;;;;0.10;0.00;;;22.10;99.90;;;;;;5079852;28;20186;-91
2022/09/13 10:56:32;;;;;;;0.10;0.00;;;22.60;99.90;;;;;;5071933;28;20786;-89
2022/09/13 10:59:18;;;;;;;0.10;0.00;;;23.00;99.90;;;;;;5073443;28;20404;-91
2022/09/13 11:02:04;;;;;;;0.00;0.00;;;23.90;99.90;;;;;;5073074;28;20214;-93
2022/09/13 11:04:54;;;;;;;0.10;0.00;;;23.50;99.90;;;;;;5070900;28;20455;-90
2022/09/13 11:07:45;;;;;;;0.10;0.00;;;24.00;99.90;;;;;;5069142;28;20932;-93
2022/09/13 11:10:11;;;;;;;0.10;0.00;;;23.80;99.90;;;;;;5069610;28;20497;-92
2022/09/13 11:12:41;;;;;;;0.10;0.00;;;24.70;99.90;;;;;;5072028;28;20432;-92
2022/09/13 11:15:20;;;;;;;0.00;0.00;;;23.30;99.90;;;;;;5069105;28;20239;-91
2022/09/13 11:17:57;;;;;;;0.10;0.00;;;23.00;99.90;;;;;;5068461;28;20863;-92
2022/09/13 11:21:02;;;;;;;0.10;0.00;;;22.40;99.90;;;;;;5073026;28;20412;-91
2022/09/13 11:23:45;;;;;;;0.10;0.00;;;22.00;99.90;;;;;;5068369;28;20448;-91
2022/09/13 11:26:22;;;;;;;0.03;0.00;;;22.00;99.90;;;;;;5067241;28;20441;-92
2022/09/13 11:28:55;;;;;;;0.10;0.00;;;21.30;99.90;;;;;;5071521;28;20428;-94
2022/09/13 11:31:36;;;;;;;0.10;0.00;;;20.80;99.90;;;;;;5071881;28;20468;-92
2022/09/13 11:34:14;;;;;;;0.10;0.00;;;20.50;99.90;;;;;;5071474;28;20506;-90
2022/09/13 11:36:39;;;;;;;0.10;0.00;;;20.10;99.90;;;;;;5070724;28;20459;-90
2022/09/13 11:39:27;;;;;;;0.10;0.10;;;19.90;99.90;;;;;;5070339;28;20460;-90
2022/09/13 11:42:23;;;;;;;0.10;0.00;;;19.60;99.90;;;;;;5072550;28;20259;-92
2022/09/13 11:44:59;;;;;;;0.10;0.00;;;19.70;99.90;;;;;;5060990;28;20815;-92
2022/09/13 11:47:49;;;;;;;0.07;0.00;;;19.60;99.90;;;;;;5063010;28;20864;-91
2022/09/13 11:50:54;;;;;;;0.10;0.10;;;19.50;99.90;;;;;;5072008;28;20436;-90
2022/09/13 11:53:32;;;;;;;0.10;0.00;;;19.30;99.90;;;;;;5069384;28;20452;-92
2022/09/13 11:56:02;;;;;;;0.10;0.00;;;19.20;99.90;;;;;;5058895;28;20432;-93
2022/09/13 11:58:33;;;;;;;0.10;0.10;;;19.40;99.90;;;;;;5086787;28;20971;-90
2022/09/13 12:01:09;;;;;;;0.10;0.00;;;19.40;99.90;;;;;;5070204;28;20982;-90
2022/09/13 12:03:53;;;;;;;0.10;0.00;;;19.40;99.90;;;;;;5084074;28;21060;-89
2022/09/13 12:06:26;;;;;;;0.10;0.00;;;20.80;99.90;;;;;;5069638;28;20436;-91
2022/09/13 12:09:13;;;;;;;0.10;0.00;;;21.90;99.90;;;;;;5069365;28;20455;-91
2022/09/13 12:11:45;;;;;;;0.10;0.00;;;21.60;99.90;;;;;;5069922;28;20408;-90
2022/09/13 12:14:15;;;;;;;0.10;0.00;;;21.20;99.90;;;;;;5068797;28;20963;-89
2022/09/13 12:16:47;;;;;;;0.10;0.00;;;21.20;99.90;;;;;;5069238;28;20463;-89
2022/09/13 12:19:16;;;;;;;0.10;0.00;;;21.00;99.90;;;;;;5069030;28;20476;-89
2022/09/13 12:21:43;;;;;;;0.10;0.00;;;20.80;99.90;;;;;;5071359;28;20444;-90
2022/09/13 12:24:36;;;;;;;0.10;0.00;;;21.20;99.90;;;;;;5061632;28;20453;-91
2022/09/13 12:27:14;;;;;;;0.10;0.00;;;23.00;99.90;;;;;;5074314;28;20982;-92
2022/09/13 12:29:50;;;;;;;0.10;0.00;;;24.00;99.90;;;;;;5060242;28;20458;-90
2022/09/13 12:32:17;;;;;;;0.00;0.00;;;23.30;99.90;;;;;;5070060;28;20462;-93
2022/09/13 12:34:57;;;;;;;0.10;0.00;;;22.00;99.90;;;;;;5070090;28;20431;-89
2022/09/13 12:37:49;;;;;;;0.10;0.00;;;21.10;99.90;;;;;;5069578;28;20939;-93
2022/09/13 12:40:35;;;;;;;0.10;0.00;;;19.90;99.90;;;;;;5054832;28;20440;-90
2022/09/13 12:43:10;;;;;;;0.10;0.00;;;19.70;99.90;;;;;;5078386;28;20569;-90
2022/09/13 12:45:57;;;;;;;0.10;0.00;;;21.20;99.90;;;;;;5069089;28;20420;-91
2022/09/13 12:48:49;;;;;;;0.10;0.00;;;21.20;99.90;;;;;;5068207;28;20440;-90
2022/09/13 12:51:39;;;;;;;0.10;0.00;;;20.60;99.90;;;;;;5069689;28;20471;-90
2022/09/13 12:54:28;;;;;;;0.10;0.00;;;21.30;99.90;;;;;;5073605;28;20444;-90
2022/09/13 12:57:11;;;;;;;0.10;0.00;;;23.20;99.90;;;;;;5055083;28;20455;-90
2022/09/13 13:00:03;;;;;;;0.10;0.00;;;23.50;99.90;;;;;;5070291;28;20485;-91
2022/09/13 13:02:40;;;;;;;0.00;0.00;;;24.30;99.90;;;;;;5061278;28;20995;-91
2022/09/13 13:05:30;;;;;;;0.10;0.00;;;24.80;99.90;;;;;;5064718;28;20494;-91
2022/09/13 13:08:16;;;;;;;0.00;0.00;;;25.30;99.90;;;;;;5067595;28;20440;-90
2022/09/13 13:10:42;;;;;;;0.10;0.00;;;23.40;99.90;;;;;;5062222;28;21052;-91
2022/09/13 13:13:38;;;;;;;0.10;0.00;;;22.10;99.90;;;;;;5058137;28;20567;-92
2022/09/13 13:16:20;;;;;;;0.10;0.00;;;21.20;99.90;;;;;;5066622;28;20681;-91
2022/09/13 13:18:47;;;;;;;0.10;0.00;;;20.90;99.90;;;;;;5067194;28;20522;-92